Capt James — WDI2369 — position and weather

sailwx.info

Track history (hours):
 
Tides and Currents Weather Stations Pressure Air Temp Water Temp Dewpoint Dewpoint Depression Visibility Wind Speed Wind Dir Waves Ship Positions

Capt James

Owner: Higman Barge Lines, Inc., Orange, TX. More information available from US FCC via Universal Licensing System and Coast Guard Vessel Documentation Center.

Last reported at 2017-Sep-21 23:11 UTC. Time now 2017-Sep-23 14:48 UTC.
Position N 29°46' W 095°07'.

Length 24 m; draft 3.2 m.

Type: Tow > 200 m length. MMSI: 367677450.

Date/timePositionNaut miles runAvg speedWind from/ knotsBaromVisibWave heightAir tempDewpointWater temp
2017-Sep-21 23:11N 29°46' W 095°07'0 0.6
2017-Sep-21 22:45N 29°46' W 095°06'1 2.7
2017-Sep-21 22:29N 29°45' W 095°06'2 4.3
2017-Sep-21 22:00N 29°45' W 095°04'3 5.4
2017-Sep-21 21:30N 29°43' W 095°01'3 6.1
2017-Sep-21 21:00N 29°41' W 094°59'3 6.9
2017-Sep-21 20:30N 29°37' W 094°58'3 6.1
2017-Sep-21 20:00N 29°35' W 094°56'3 6.0
2017-Sep-21 19:30N 29°32' W 094°54'3 6.1
2017-Sep-21 19:00N 29°30' W 094°52'  
2017-Sep-19 06:26N 30°01' W 093°46'2 2.5
2017-Sep-19 05:42N 30°02' W 093°44'1 6.0
2017-Sep-19 05:30N 30°03' W 093°44'3 5.2
2017-Sep-19 05:00N 30°04' W 093°41'3 5.4
2017-Sep-19 04:30N 30°04' W 093°38'2 4.8
2017-Sep-19 04:00N 30°04' W 093°35'2 4.5
2017-Sep-19 03:30N 30°04' W 093°32'2 4.6
2017-Sep-19 03:01N 30°04' W 093°30'2 4.5
2017-Sep-19 02:31N 30°04' W 093°27'2 4.4
2017-Sep-19 02:00N 30°04' W 093°24'2 4.2
2017-Sep-19 01:30N 30°04' W 093°22'2 3.8
2017-Sep-19 01:00N 30°05' W 093°20'2 4.3
2017-Sep-19 00:30N 30°06' W 093°18'1 2.7
2017-Sep-19 00:00N 30°05' W 093°17'2 4.4
2017-Sep-18 23:30N 30°03' W 093°16'2 3.9
2017-Sep-18 23:00N 30°02' W 093°14'2 4.4
2017-Sep-18 22:30N 29°60' W 093°13'2 4.8
2017-Sep-18 22:00N 29°58' W 093°11'2 4.8
2017-Sep-18 21:30N 29°56' W 093°10'2 4.7
2017-Sep-18 21:00N 29°56' W 093°07'2 4.5
2017-Sep-18 20:31N 29°56' W 093°04'2 4.7
2017-Sep-18 20:00N 29°56' W 093°02'36 4.4
2017-Sep-18 11:52N 29°51' W 092°21'2 4.5
2017-Sep-18 11:30N 29°50' W 092°19'2 4.1
2017-Sep-18 11:01N 29°49' W 092°17'2 3.1
2017-Sep-18 10:30N 29°48' W 092°16'2 3.4
2017-Sep-18 10:00N 29°48' W 092°14'2 4.2
2017-Sep-18 09:30N 29°47' W 092°12'2 3.8
2017-Sep-18 09:00N 29°47' W 092°09'2 4.6
2017-Sep-18 08:30N 29°48' W 092°07'2 4.7
2017-Sep-18 08:00N 29°48' W 092°04'2 4.6
2017-Sep-18 07:30N 29°49' W 092°02'4 4.5
2017-Sep-18 06:40N 29°50' W 091°58'1 4.3
2017-Sep-18 06:30N 29°51' W 091°57'55 4.0
2017-Sep-17 16:57N 29°34' W 090°57'2 4.8
2017-Sep-17 16:30N 29°33' W 090°55'3 4.8
2017-Sep-17 15:57N 29°32' W 090°52'2 5.0
2017-Sep-17 15:30N 29°32' W 090°49'3 5.0
2017-Sep-17 15:00N 29°32' W 090°46'2 4.5
2017-Sep-17 14:30N 29°34' W 090°45'2 3.9
2017-Sep-17 14:01N 29°35' W 090°43'2 4.0
2017-Sep-17 13:30N 29°37' W 090°42'2 4.2
2017-Sep-17 13:00N 29°36' W 090°40'2 4.3
2017-Sep-17 12:30N 29°35' W 090°38'2 4.1
2017-Sep-17 12:00N 29°35' W 090°35'2 4.6
2017-Sep-17 11:30N 29°34' W 090°33'2 4.7
2017-Sep-17 11:00N 29°34' W 090°30'3 4.9
2017-Sep-17 10:30N 29°33' W 090°27'2 4.8
2017-Sep-17 10:01N 29°33' W 090°25'  
Track history (hours):
 
Tides and Currents Weather Stations Pressure Air Temp Water Temp Dewpoint Dewpoint Depression Visibility Wind Speed Wind Dir Waves Ship Positions

Capt James

Owner: Higman Barge Lines, Inc., Orange, TX. More information available from US FCC via Universal Licensing System and Coast Guard Vessel Documentation Center.

Last reported at 2017-Sep-21 23:11 UTC. Time now 2017-Sep-23 14:48 UTC.
Position N 29°46' W 095°07'.

Length 24 m; draft 3.2 m.

Type: Tow > 200 m length. MMSI: 367677450.

Date/timePositionNaut miles runAvg speedWind from/ knotsBaromVisibWave heightAir tempDewpointWater temp
2017-Sep-21 23:11N 29°46' W 095°07'0 0.6
2017-Sep-21 22:45N 29°46' W 095°06'1 2.7
2017-Sep-21 22:29N 29°45' W 095°06'2 4.3
2017-Sep-21 22:00N 29°45' W 095°04'3 5.4
2017-Sep-21 21:30N 29°43' W 095°01'3 6.1
2017-Sep-21 21:00N 29°41' W 094°59'3 6.9
2017-Sep-21 20:30N 29°37' W 094°58'3 6.1
2017-Sep-21 20:00N 29°35' W 094°56'3 6.0
2017-Sep-21 19:30N 29°32' W 094°54'3 6.1
2017-Sep-21 19:00N 29°30' W 094°52'  
2017-Sep-19 06:26N 30°01' W 093°46'2 2.5
2017-Sep-19 05:42N 30°02' W 093°44'1 6.0
2017-Sep-19 05:30N 30°03' W 093°44'3 5.2
2017-Sep-19 05:00N 30°04' W 093°41'3 5.4
2017-Sep-19 04:30N 30°04' W 093°38'2 4.8
2017-Sep-19 04:00N 30°04' W 093°35'2 4.5
2017-Sep-19 03:30N 30°04' W 093°32'2 4.6
2017-Sep-19 03:01N 30°04' W 093°30'2 4.5
2017-Sep-19 02:31N 30°04' W 093°27'2 4.4
2017-Sep-19 02:00N 30°04' W 093°24'2 4.2
2017-Sep-19 01:30N 30°04' W 093°22'2 3.8
2017-Sep-19 01:00N 30°05' W 093°20'2 4.3
2017-Sep-19 00:30N 30°06' W 093°18'1 2.7
2017-Sep-19 00:00N 30°05' W 093°17'2 4.4
2017-Sep-18 23:30N 30°03' W 093°16'2 3.9
2017-Sep-18 23:00N 30°02' W 093°14'2 4.4
2017-Sep-18 22:30N 29°60' W 093°13'2 4.8
2017-Sep-18 22:00N 29°58' W 093°11'2 4.8
2017-Sep-18 21:30N 29°56' W 093°10'2 4.7
2017-Sep-18 21:00N 29°56' W 093°07'2 4.5
2017-Sep-18 20:31N 29°56' W 093°04'2 4.7
2017-Sep-18 20:00N 29°56' W 093°02'36 4.4
2017-Sep-18 11:52N 29°51' W 092°21'2 4.5
2017-Sep-18 11:30N 29°50' W 092°19'2 4.1
2017-Sep-18 11:01N 29°49' W 092°17'2 3.1
2017-Sep-18 10:30N 29°48' W 092°16'2 3.4
2017-Sep-18 10:00N 29°48' W 092°14'2 4.2
2017-Sep-18 09:30N 29°47' W 092°12'2 3.8
2017-Sep-18 09:00N 29°47' W 092°09'2 4.6
2017-Sep-18 08:30N 29°48' W 092°07'2 4.7
2017-Sep-18 08:00N 29°48' W 092°04'2 4.6
2017-Sep-18 07:30N 29°49' W 092°02'4 4.5
2017-Sep-18 06:40N 29°50' W 091°58'1 4.3
2017-Sep-18 06:30N 29°51' W 091°57'55 4.0
2017-Sep-17 16:57N 29°34' W 090°57'2 4.8
2017-Sep-17 16:30N 29°33' W 090°55'3 4.8
2017-Sep-17 15:57N 29°32' W 090°52'2 5.0
2017-Sep-17 15:30N 29°32' W 090°49'3 5.0
2017-Sep-17 15:00N 29°32' W 090°46'2 4.5
2017-Sep-17 14:30N 29°34' W 090°45'2 3.9
2017-Sep-17 14:01N 29°35' W 090°43'2 4.0
2017-Sep-17 13:30N 29°37' W 090°42'2 4.2
2017-Sep-17 13:00N 29°36' W 090°40'2 4.3
2017-Sep-17 12:30N 29°35' W 090°38'2 4.1
2017-Sep-17 12:00N 29°35' W 090°35'2 4.6
2017-Sep-17 11:30N 29°34' W 090°33'2 4.7
2017-Sep-17 11:00N 29°34' W 090°30'3 4.9
2017-Sep-17 10:30N 29°33' W 090°27'2 4.8
2017-Sep-17 10:01N 29°33' W 090°25'  

Dump ship's entire track history